Time;durP1;ratioP1;P1;durP2;ratioP2;P2;SDS_P1;SDS_P2;PMS_P1;PMS_P2;Temp;Humidity;BMP_temperature;BMP_pressure;BME280_temperature;BME280_humidity;BME280_pressure;Samples;Min_cycle;Max_cycle;Signal;HPM_P1;HPM_P2
2022/12/04 00:01:29;;;;;;;70.60;29.88;;;-0.20;99.90;;;;;;5093433;28;20204;-60
2022/12/04 00:03:58;;;;;;;50.35;27.30;;;-0.20;99.90;;;;;;5093419;28;20269;-61
2022/12/04 00:06:25;;;;;;;78.38;30.90;;;-0.10;99.90;;;;;;5093476;28;20211;-60
2022/12/04 00:08:54;;;;;;;64.43;27.42;;;-0.10;99.90;;;;;;5093572;28;20206;-60
2022/12/04 00:11:22;;;;;;;56.88;28.10;;;-0.20;99.90;;;;;;5093193;28;20601;-60
2022/12/04 00:13:49;;;;;;;61.40;28.73;;;-0.20;99.90;;;;;;5092868;28;20693;-59
2022/12/04 00:16:19;;;;;;;54.72;26.08;;;-0.10;99.90;;;;;;5093366;28;20211;-60
2022/12/04 00:18:46;;;;;;;55.13;26.23;;;-0.20;99.90;;;;;;5092960;28;20196;-60
2022/12/04 00:21:15;;;;;;;55.65;24.08;;;-0.20;99.90;;;;;;5092997;28;20683;-59
2022/12/04 00:23:42;;;;;;;58.30;27.88;;;-0.20;99.90;;;;;;5092899;28;20735;-60
2022/12/04 00:26:13;;;;;;;61.92;28.50;;;-0.20;99.90;;;;;;5095199;28;20196;-61
2022/12/04 00:28:40;;;;;;;66.50;27.08;;;-0.20;99.90;;;;;;5097643;28;20189;-60
2022/12/04 00:31:08;;;;;;;51.83;25.48;;;-0.20;99.90;;;;;;5098276;28;20207;-60
2022/12/04 00:33:36;;;;;;;56.55;27.70;;;-0.30;99.90;;;;;;5097309;28;20232;-59
2022/12/04 00:36:06;;;;;;;62.72;27.60;;;-0.30;99.90;;;;;;5097432;28;20224;-59
2022/12/04 00:38:32;;;;;;;51.35;26.17;;;-0.30;99.90;;;;;;5097422;28;20219;-60
2022/12/04 00:41:00;;;;;;;60.53;27.02;;;-0.30;99.90;;;;;;5097357;28;20200;-60
2022/12/04 00:43:29;;;;;;;57.63;25.55;;;-0.30;99.90;;;;;;5096980;28;20761;-60
2022/12/04 00:45:56;;;;;;;68.07;26.50;;;-0.30;99.90;;;;;;5097319;28;20207;-60
2022/12/04 00:48:23;;;;;;;59.90;25.80;;;-0.30;99.90;;;;;;5097200;28;20204;-60
2022/12/04 00:50:50;;;;;;;50.10;25.88;;;-0.30;99.90;;;;;;5097173;28;20203;-60
2022/12/04 00:53:17;;;;;;;56.63;27.45;;;-0.30;99.90;;;;;;5097004;28;20220;-59
2022/12/04 00:55:44;;;;;;;57.58;28.52;;;-0.30;99.90;;;;;;5096915;28;20227;-59
2022/12/04 00:58:11;;;;;;;53.38;27.23;;;-0.30;99.90;;;;;;5097334;28;20204;-59
2022/12/04 01:00:41;;;;;;;61.92;25.88;;;-0.30;99.90;;;;;;5096965;28;20572;-60
2022/12/04 01:03:08;;;;;;;66.35;26.92;;;-0.30;99.90;;;;;;5096692;28;20230;-60
2022/12/04 01:05:39;;;;;;;66.03;28.33;;;-0.30;99.90;;;;;;5096847;28;20296;-60
2022/12/04 01:08:05;;;;;;;63.40;27.70;;;-0.30;99.90;;;;;;5097193;28;20249;-59
2022/12/04 01:10:32;;;;;;;82.07;32.15;;;-0.20;99.90;;;;;;5097021;28;20196;-59
2022/12/04 01:12:59;;;;;;;57.35;27.33;;;-0.20;99.90;;;;;;5096702;28;20220;-60
2022/12/04 01:15:26;;;;;;;65.10;28.98;;;-0.20;99.90;;;;;;5096782;28;20216;-60
2022/12/04 01:17:54;;;;;;;72.45;28.13;;;-0.20;99.90;;;;;;5096815;28;20575;-59
2022/12/04 01:20:21;;;;;;;72.72;29.25;;;-0.20;99.90;;;;;;5097226;28;20201;-59
2022/12/04 01:22:47;;;;;;;68.35;28.73;;;-0.20;99.90;;;;;;5096540;28;20264;-61
2022/12/04 01:25:14;;;;;;;68.68;28.40;;;-0.20;99.90;;;;;;5096297;28;20200;-59
2022/12/04 01:27:41;;;;;;;69.40;27.65;;;-0.10;99.90;;;;;;5096389;28;20680;-60
2022/12/04 01:30:09;;;;;;;80.32;28.83;;;-0.10;99.90;;;;;;5095843;28;20707;-60
2022/12/04 01:32:35;;;;;;;62.88;28.77;;;-0.20;99.90;;;;;;5095615;28;20234;-59
2022/12/04 01:35:05;;;;;;;65.25;29.15;;;-0.20;99.90;;;;;;5096571;28;20224;-60
2022/12/04 01:37:31;;;;;;;64.00;27.15;;;-0.20;99.90;;;;;;5095590;28;20196;-59
2022/12/04 01:39:59;;;;;;;66.18;26.75;;;-0.20;99.90;;;;;;5097174;28;20227;-60
2022/12/04 01:42:26;;;;;;;71.47;27.70;;;-0.10;99.90;;;;;;5096358;28;20216;-60
2022/12/04 01:45:32;;;;;;;60.30;26.45;;;-0.10;99.90;;;;;;5096098;28;20200;-59
2022/12/04 01:48:16;;;;;;;64.78;25.80;;;-0.10;99.90;;;;;;5096067;28;20191;-60
2022/12/04 01:50:45;;;;;;;65.95;26.48;;;-0.20;99.90;;;;;;5095912;28;20184;-59
2022/12/04 01:53:13;;;;;;;73.03;28.10;;;-0.20;99.90;;;;;;5096242;28;20223;-60
2022/12/04 01:55:41;;;;;;;59.75;26.58;;;-0.20;99.90;;;;;;5095727;28;20221;-60
2022/12/04 01:58:09;;;;;;;63.40;26.80;;;-0.20;99.90;;;;;;5095859;28;20212;-58
2022/12/04 02:00:36;;;;;;;55.95;24.88;;;-0.20;99.90;;;;;;5095864;28;20204;-59
2022/12/04 02:03:03;;;;;;;57.70;23.30;;;-0.20;99.90;;;;;;5095668;28;20228;-59
2022/12/04 02:05:30;;;;;;;59.83;23.00;;;-0.20;99.90;;;;;;5095085;28;20204;-59
2022/12/04 02:08:04;;;;;;;52.88;24.90;;;-0.20;99.90;;;;;;5095852;28;20216;-60
2022/12/04 02:10:41;;;;;;;60.90;24.25;;;-0.20;99.90;;;;;;5095473;28;20189;-60
2022/12/04 02:13:14;;;;;;;59.55;25.33;;;-0.20;99.90;;;;;;5095497;28;20224;-60
2022/12/04 02:15:48;;;;;;;58.30;25.75;;;-0.20;99.90;;;;;;5094847;28;20236;-59
2022/12/04 02:18:22;;;;;;;49.80;23.73;;;-0.20;99.90;;;;;;5095006;28;20196;-60
2022/12/04 02:20:57;;;;;;;55.70;24.33;;;-0.20;99.90;;;;;;5095264;28;20191;-59
2022/12/04 02:23:57;;;;;;;61.00;24.45;;;-0.20;99.90;;;;;;5095245;28;20219;-60
2022/12/04 02:26:38;;;;;;;62.67;25.77;;;-0.20;99.90;;;;;;5094919;28;20663;-60
2022/12/04 02:29:12;;;;;;;51.80;23.73;;;-0.20;99.90;;;;;;5095292;28;20203;-59
2022/12/04 02:31:43;;;;;;;50.33;25.33;;;-0.20;99.90;;;;;;5095140;28;20188;-60
2022/12/04 02:34:15;;;;;;;50.30;23.83;;;-0.20;99.90;;;;;;5094855;28;20579;-60
2022/12/04 02:36:48;;;;;;;56.92;25.25;;;-0.20;99.90;;;;;;5094676;28;20573;-60
2022/12/04 02:39:22;;;;;;;50.90;24.30;;;-0.20;99.90;;;;;;5095033;28;20189;-59
2022/12/04 02:41:55;;;;;;;52.85;25.27;;;-0.30;99.90;;;;;;5095092;28;20709;-60
2022/12/04 02:44:27;;;;;;;50.17;23.63;;;-0.30;99.90;;;;;;5095118;28;20188;-59
2022/12/04 02:46:58;;;;;;;51.97;24.50;;;-0.30;99.90;;;;;;5095297;28;20196;-59
2022/12/04 02:49:30;;;;;;;56.13;25.45;;;-0.30;99.90;;;;;;5093495;28;20531;-60
2022/12/04 02:51:59;;;;;;;53.03;23.23;;;-0.30;99.90;;;;;;5094474;28;20191;-59
2022/12/04 02:54:32;;;;;;;49.42;23.52;;;-0.30;99.90;;;;;;5094336;28;20208;-59
2022/12/04 02:56:59;;;;;;;52.00;22.70;;;-0.20;99.90;;;;;;5094628;28;20679;-60
2022/12/04 02:59:32;;;;;;;53.53;22.20;;;-0.20;99.90;;;;;;5094462;28;20211;-59
2022/12/04 03:02:06;;;;;;;52.03;23.77;;;-0.20;99.90;;;;;;5094342;28;20636;-59
2022/12/04 03:04:33;;;;;;;55.15;23.75;;;-0.20;99.90;;;;;;5094884;28;20195;-60
2022/12/04 03:07:05;;;;;;;49.72;22.30;;;-0.20;99.90;;;;;;5094237;28;20699;-59
2022/12/04 03:09:36;;;;;;;54.63;23.92;;;-0.20;99.90;;;;;;5094340;28;20241;-58
2022/12/04 03:12:09;;;;;;;55.95;24.15;;;-0.20;99.90;;;;;;5094280;28;20196;-60
2022/12/04 03:14:41;;;;;;;46.92;22.85;;;-0.20;99.90;;;;;;5094525;28;20640;-59
2022/12/04 03:17:14;;;;;;;49.40;22.38;;;-0.20;99.90;;;;;;5095156;28;20184;-59
2022/12/04 03:19:45;;;;;;;59.75;24.13;;;-0.20;99.90;;;;;;5095159;28;20196;-60
2022/12/04 03:22:17;;;;;;;55.72;23.95;;;-0.20;99.90;;;;;;5095237;28;20223;-59
2022/12/04 03:24:47;;;;;;;49.60;22.80;;;-0.20;99.90;;;;;;5095168;28;20191;-59
2022/12/04 03:27:21;;;;;;;54.72;25.25;;;-0.20;99.90;;;;;;5095756;28;20288;-59
2022/12/04 03:29:55;;;;;;;58.00;24.92;;;-0.10;99.90;;;;;;5094810;28;20192;-59
2022/12/04 03:32:27;;;;;;;54.60;24.70;;;-0.10;99.90;;;;;;5094243;28;20235;-59
2022/12/04 03:34:58;;;;;;;50.45;23.17;;;-0.10;99.90;;;;;;5094354;28;20189;-60
2022/12/04 03:37:33;;;;;;;55.33;26.02;;;-0.10;99.90;;;;;;5094647;28;20204;-60
2022/12/04 03:40:05;;;;;;;47.47;21.55;;;-0.10;99.90;;;;;;5094044;28;20188;-59
2022/12/04 03:42:38;;;;;;;52.08;23.58;;;-0.10;99.90;;;;;;5093765;28;20242;-60
2022/12/04 03:45:10;;;;;;;52.63;24.98;;;-0.10;99.90;;;;;;5094107;28;20215;-60
2022/12/04 03:47:44;;;;;;;53.45;22.00;;;-0.10;99.90;;;;;;5093766;28;20192;-59
2022/12/04 03:50:16;;;;;;;53.95;23.60;;;-0.10;99.90;;;;;;5093981;28;20192;-59
2022/12/04 03:52:48;;;;;;;57.95;24.27;;;-0.10;99.90;;;;;;5093678;28;20583;-60
2022/12/04 03:55:22;;;;;;;61.05;25.92;;;-0.10;99.90;;;;;;5093534;28;20601;-58
2022/12/04 03:57:50;;;;;;;55.00;24.60;;;-0.10;99.90;;;;;;5093824;28;20633;-58
2022/12/04 04:00:21;;;;;;;64.38;27.35;;;-0.10;99.90;;;;;;5093346;28;20189;-59
2022/12/04 04:02:57;;;;;;;62.58;25.67;;;-0.10;99.90;;;;;;5093612;28;20303;-59
2022/12/04 04:05:26;;;;;;;50.95;26.55;;;-0.10;99.90;;;;;;5093290;28;20550;-59
2022/12/04 04:10:41;;;;;;;60.33;26.13;;;0.00;99.90;;;;;;5176996;27;20530;-60
2022/12/04 04:24:30;;;;;;;57.45;27.80;;;0.00;99.90;;;;;;5176044;27;20181;-61
2022/12/04 04:26:59;;;;;;;56.42;26.63;;;0.00;99.90;;;;;;5179463;27;20195;-60
2022/12/04 04:29:26;;;;;;;66.53;26.38;;;0.10;99.90;;;;;;5180024;27;20724;-61
2022/12/04 04:32:00;;;;;;;63.40;27.38;;;0.10;99.90;;;;;;5178226;27;20289;-60
2022/12/04 04:34:33;;;;;;;59.20;25.65;;;0.10;99.90;;;;;;5178130;27;20182;-59
2022/12/04 04:37:10;;;;;;;65.03;27.17;;;0.10;99.90;;;;;;5180839;27;20193;-59
2022/12/04 04:39:43;;;;;;;68.20;28.50;;;0.10;99.90;;;;;;5177274;27;20185;-59
2022/12/04 04:42:17;;;;;;;58.42;26.45;;;0.10;99.90;;;;;;5173159;27;20221;-60
2022/12/04 04:44:48;;;;;;;60.60;26.25;;;0.10;99.90;;;;;;5173164;27;20205;-60
2022/12/04 04:47:23;;;;;;;57.20;26.52;;;0.10;99.90;;;;;;5173030;27;20182;-61
2022/12/04 04:49:52;;;;;;;58.70;28.30;;;0.20;99.90;;;;;;5172183;27;20313;-60
2022/12/04 04:52:21;;;;;;;62.00;29.88;;;0.20;99.90;;;;;;5172500;27;20213;-61
2022/12/04 04:54:48;;;;;;;69.25;27.13;;;0.20;99.90;;;;;;5172345;27;20564;-61
2022/12/04 04:57:27;;;;;;;62.75;29.70;;;0.20;99.90;;;;;;5172371;27;20544;-61
2022/12/04 04:59:54;;;;;;;59.20;28.70;;;0.20;99.90;;;;;;5172259;27;20178;-60
2022/12/04 05:02:21;;;;;;;67.22;29.13;;;0.20;99.90;;;;;;5172143;27;20225;-60
2022/12/04 05:04:47;;;;;;;55.70;28.50;;;0.20;99.90;;;;;;5172097;27;20198;-59
2022/12/04 05:07:14;;;;;;;60.42;26.98;;;0.20;99.90;;;;;;5172539;27;20610;-61
2022/12/04 05:09:41;;;;;;;66.68;29.85;;;0.20;99.90;;;;;;5171775;27;20220;-59
2022/12/04 05:12:08;;;;;;;53.80;27.52;;;0.20;99.90;;;;;;5172079;27;20233;-60
2022/12/04 05:14:36;;;;;;;59.15;28.33;;;0.20;99.90;;;;;;5172037;27;20225;-61
2022/12/04 05:17:05;;;;;;;59.70;30.23;;;0.30;99.90;;;;;;5171803;27;20202;-62
2022/12/04 05:22:13;;;;;;;69.47;30.40;;;0.20;99.90;;;;;;5154329;27;20210;-59
2022/12/04 05:24:40;;;;;;;58.55;28.60;;;0.30;99.90;;;;;;5157841;27;20205;-60
2022/12/04 05:27:06;;;;;;;61.00;30.20;;;0.30;99.90;;;;;;5157828;27;20221;-60
2022/12/04 05:29:33;;;;;;;58.65;30.00;;;0.30;99.90;;;;;;5157690;27;20238;-59
2022/12/04 05:32:01;;;;;;;65.88;30.23;;;0.30;99.90;;;;;;5157609;27;20221;-60
2022/12/04 05:34:28;;;;;;;62.65;28.90;;;0.30;99.90;;;;;;5157753;27;20205;-61
2022/12/04 05:36:55;;;;;;;63.90;28.10;;;0.30;99.90;;;;;;5157904;27;20194;-61
2022/12/04 05:39:22;;;;;;;66.35;30.45;;;0.30;99.90;;;;;;5157727;27;20191;-61
2022/12/04 05:41:48;;;;;;;59.25;27.65;;;0.30;99.90;;;;;;5157697;27;20210;-62
2022/12/04 05:44:15;;;;;;;55.63;28.70;;;0.30;99.90;;;;;;5157648;27;20202;-60
2022/12/04 05:46:42;;;;;;;59.53;28.98;;;0.40;99.90;;;;;;5157415;27;20209;-61
2022/12/04 05:49:10;;;;;;;60.08;28.75;;;0.40;99.90;;;;;;5157719;27;20218;-61
2022/12/04 05:51:37;;;;;;;59.83;28.95;;;0.40;99.90;;;;;;5157365;27;20209;-61
2022/12/04 05:54:04;;;;;;;61.95;31.15;;;0.40;99.90;;;;;;5157297;27;20218;-60
2022/12/04 05:56:30;;;;;;;56.00;26.75;;;0.40;99.90;;;;;;5157190;27;20199;-61
2022/12/04 05:58:57;;;;;;;60.05;29.67;;;0.40;99.90;;;;;;5157046;27;20669;-62
2022/12/04 06:01:25;;;;;;;51.53;27.10;;;0.40;99.90;;;;;;5156759;27;20198;-61
2022/12/04 06:03:52;;;;;;;58.65;30.27;;;0.50;99.90;;;;;;5156640;27;20247;-60
2022/12/04 06:06:21;;;;;;;67.93;29.67;;;0.40;99.90;;;;;;5157753;27;20202;-60
2022/12/04 06:08:48;;;;;;;57.20;27.63;;;0.40;99.90;;;;;;5156805;27;20203;-60
2022/12/04 06:11:17;;;;;;;48.20;25.77;;;0.40;99.90;;;;;;5157526;27;20199;-61
2022/12/04 06:13:45;;;;;;;57.90;28.98;;;0.40;99.90;;;;;;5156426;27;20709;-62
2022/12/04 06:16:14;;;;;;;60.28;28.60;;;0.40;99.90;;;;;;5156739;27;20201;-61
2022/12/04 06:18:41;;;;;;;52.30;28.10;;;0.40;99.90;;;;;;5156857;27;20243;-62
2022/12/04 06:21:08;;;;;;;56.15;28.73;;;0.40;99.90;;;;;;5156678;27;20195;-61
2022/12/04 06:23:36;;;;;;;68.45;29.02;;;0.40;99.90;;;;;;5156371;27;20724;-61
2022/12/04 06:26:04;;;;;;;66.93;28.20;;;0.40;99.90;;;;;;5156638;27;20202;-60
2022/12/04 06:28:31;;;;;;;62.42;27.73;;;0.40;99.90;;;;;;5157155;27;20199;-60
2022/12/04 06:31:01;;;;;;;57.58;28.65;;;0.50;99.90;;;;;;5157513;27;20225;-61
2022/12/04 06:33:28;;;;;;;57.25;27.48;;;0.50;99.90;;;;;;5156581;27;20211;-60
2022/12/04 06:35:59;;;;;;;56.85;28.20;;;0.50;99.90;;;;;;5158745;27;20293;-60
2022/12/04 06:38:26;;;;;;;55.85;28.55;;;0.50;99.90;;;;;;5157239;27;20202;-61
2022/12/04 06:40:54;;;;;;;58.53;30.95;;;0.50;99.90;;;;;;5159749;27;20205;-61
2022/12/04 06:43:21;;;;;;;55.25;27.30;;;0.50;99.90;;;;;;5156574;27;20226;-61
2022/12/04 06:45:47;;;;;;;52.17;26.67;;;0.50;99.90;;;;;;5157267;27;20213;-60
2022/12/04 06:48:14;;;;;;;54.28;26.98;;;0.50;99.90;;;;;;5157468;27;20209;-59
2022/12/04 06:50:41;;;;;;;55.00;27.48;;;0.50;99.90;;;;;;5156938;27;20221;-59
2022/12/04 06:53:08;;;;;;;53.97;26.70;;;0.50;99.90;;;;;;5160491;27;20286;-61
2022/12/04 06:55:35;;;;;;;50.75;26.70;;;0.50;99.90;;;;;;5156923;27;20198;-61
2022/12/04 06:58:03;;;;;;;54.38;26.70;;;0.50;99.90;;;;;;5156450;27;20199;-60
2022/12/04 07:00:30;;;;;;;53.42;27.48;;;0.50;99.90;;;;;;5156051;27;20194;-61
2022/12/04 07:02:56;;;;;;;48.40;24.50;;;0.50;99.90;;;;;;5156340;27;20218;-61
2022/12/04 07:05:23;;;;;;;48.08;24.90;;;0.50;99.90;;;;;;5156199;27;20202;-60
2022/12/04 07:07:50;;;;;;;50.70;25.15;;;0.50;99.90;;;;;;5157749;27;20198;-60
2022/12/04 07:10:17;;;;;;;54.75;26.23;;;0.50;99.90;;;;;;5155638;27;20229;-60
2022/12/04 07:12:43;;;;;;;59.80;30.38;;;0.50;99.90;;;;;;5157195;27;20237;-61
2022/12/04 07:15:12;;;;;;;51.95;27.95;;;0.50;99.90;;;;;;5156058;27;20209;-61
2022/12/04 07:17:38;;;;;;;53.95;26.98;;;0.50;99.90;;;;;;5162243;27;20199;-59
2022/12/04 07:20:06;;;;;;;50.33;26.52;;;0.60;99.90;;;;;;5158519;27;20191;-62
2022/12/04 07:22:33;;;;;;;51.42;26.13;;;0.50;99.90;;;;;;5159087;27;20229;-61
2022/12/04 07:25:00;;;;;;;49.17;23.98;;;0.60;99.90;;;;;;5159814;27;20198;-59
2022/12/04 07:27:26;;;;;;;53.08;27.30;;;0.60;99.90;;;;;;5159417;27;20261;-59
2022/12/04 07:29:53;;;;;;;47.90;26.42;;;0.60;99.90;;;;;;5159806;27;20222;-61
2022/12/04 07:32:21;;;;;;;46.47;24.02;;;0.60;99.90;;;;;;5159902;27;20584;-61
2022/12/04 07:34:48;;;;;;;50.95;26.30;;;0.60;99.90;;;;;;5160102;27;20226;-61
2022/12/04 07:37:15;;;;;;;50.17;27.05;;;0.60;99.90;;;;;;5159733;27;20202;-59
2022/12/04 07:39:42;;;;;;;50.78;27.33;;;0.60;99.90;;;;;;5158502;27;20662;-60
2022/12/04 07:42:08;;;;;;;53.95;27.13;;;0.60;99.90;;;;;;5158919;27;20224;-61
2022/12/04 07:44:36;;;;;;;55.55;25.60;;;0.60;99.90;;;;;;5159904;27;20212;-61
2022/12/04 07:47:02;;;;;;;43.25;23.45;;;0.60;99.90;;;;;;5157755;27;20223;-61
2022/12/04 07:49:30;;;;;;;46.72;24.88;;;0.60;99.90;;;;;;5150061;27;20210;-63
2022/12/04 07:51:57;;;;;;;43.47;24.83;;;0.60;99.90;;;;;;5144750;27;20195;-60
2022/12/04 07:54:24;;;;;;;47.85;27.55;;;0.60;99.90;;;;;;5146634;27;20203;-60
2022/12/04 07:56:51;;;;;;;57.05;27.63;;;0.60;99.90;;;;;;5142477;27;20199;-61
2022/12/04 07:59:17;;;;;;;53.55;26.60;;;0.60;99.90;;;;;;5141134;27;20707;-61
2022/12/04 08:01:44;;;;;;;43.78;24.98;;;0.60;99.90;;;;;;5140828;27;20597;-63
2022/12/04 08:04:12;;;;;;;44.28;23.60;;;0.60;99.90;;;;;;5146014;27;20213;-61
2022/12/04 08:06:40;;;;;;;50.95;26.52;;;0.60;99.90;;;;;;5148181;27;20281;-61
2022/12/04 08:09:08;;;;;;;47.92;26.52;;;0.60;99.90;;;;;;5149997;27;20203;-60
2022/12/04 08:11:34;;;;;;;55.00;29.25;;;0.60;99.90;;;;;;5144065;27;20589;-61
2022/12/04 08:14:04;;;;;;;48.10;26.23;;;0.60;99.90;;;;;;5144071;27;20701;-60
2022/12/04 08:16:34;;;;;;;50.55;25.85;;;0.60;99.90;;;;;;5144681;27;20205;-59
2022/12/04 08:19:02;;;;;;;49.22;25.88;;;0.60;99.90;;;;;;5137740;28;20670;-61
2022/12/04 08:21:30;;;;;;;51.75;26.00;;;0.60;99.90;;;;;;5137120;28;20207;-61
2022/12/04 08:24:00;;;;;;;50.20;26.95;;;0.60;99.90;;;;;;5139229;27;20229;-61
2022/12/04 08:26:29;;;;;;;49.03;25.80;;;0.60;99.90;;;;;;5136361;28;20201;-61
2022/12/04 08:28:56;;;;;;;55.00;27.98;;;0.60;99.90;;;;;;5136002;27;20685;-60
2022/12/04 08:31:25;;;;;;;54.97;28.08;;;0.60;99.90;;;;;;5138441;27;20218;-59
2022/12/04 08:33:53;;;;;;;55.20;27.65;;;0.60;99.90;;;;;;5138509;27;20234;-61
2022/12/04 08:36:21;;;;;;;45.80;26.02;;;0.70;99.90;;;;;;5137288;28;20206;-60
2022/12/04 08:38:49;;;;;;;52.78;27.25;;;0.70;99.90;;;;;;5137944;27;20221;-60
2022/12/04 08:41:20;;;;;;;56.10;27.83;;;0.70;99.90;;;;;;5136817;28;20199;-60
2022/12/04 08:43:47;;;;;;;48.53;25.90;;;0.70;99.90;;;;;;5137064;27;20279;-61
2022/12/04 08:46:15;;;;;;;46.22;27.23;;;0.70;99.90;;;;;;5137878;28;20226;-61
2022/12/04 08:48:42;;;;;;;53.83;26.80;;;0.70;99.90;;;;;;5145356;27;20198;-59
2022/12/04 08:51:13;;;;;;;54.05;28.02;;;0.70;99.90;;;;;;5158829;27;20245;-61
2022/12/04 08:53:40;;;;;;;60.13;27.75;;;0.60;99.90;;;;;;5159523;27;20218;-60
2022/12/04 08:56:08;;;;;;;45.45;24.08;;;0.70;99.90;;;;;;5161474;27;20209;-61
2022/12/04 08:58:36;;;;;;;51.22;28.27;;;0.60;99.90;;;;;;5159570;27;20206;-61
2022/12/04 09:01:07;;;;;;;49.67;26.70;;;0.60;99.90;;;;;;5160680;27;20198;-60
2022/12/04 09:03:34;;;;;;;57.65;29.25;;;0.60;99.90;;;;;;5139602;27;20223;-61
2022/12/04 09:06:01;;;;;;;57.33;29.50;;;0.60;99.90;;;;;;5139990;27;20203;-60
2022/12/04 09:08:28;;;;;;;59.60;28.52;;;0.60;99.90;;;;;;5151088;27;20194;-61
2022/12/04 09:10:55;;;;;;;57.83;27.55;;;0.60;99.90;;;;;;5147743;27;20211;-59
2022/12/04 09:13:22;;;;;;;50.25;26.30;;;0.60;99.90;;;;;;5146892;27;20215;-62
2022/12/04 09:15:50;;;;;;;57.00;27.55;;;0.70;99.90;;;;;;5138936;27;20290;-61
2022/12/04 09:18:16;;;;;;;61.58;27.98;;;0.70;99.90;;;;;;5138277;27;20654;-61
2022/12/04 09:20:43;;;;;;;55.42;28.52;;;0.70;99.90;;;;;;5138481;27;20199;-60
2022/12/04 09:23:10;;;;;;;61.58;29.25;;;0.80;99.90;;;;;;5139506;27;20588;-61
2022/12/04 09:25:37;;;;;;;58.83;27.25;;;0.80;99.90;;;;;;5158775;27;20201;-60
2022/12/04 09:28:04;;;;;;;57.72;27.00;;;0.80;99.90;;;;;;5159729;27;20205;-60
2022/12/04 09:30:31;;;;;;;54.72;27.45;;;0.80;99.90;;;;;;5148068;27;20219;-60
2022/12/04 09:32:59;;;;;;;48.80;26.48;;;0.80;99.90;;;;;;5138980;27;20219;-61
2022/12/04 09:35:26;;;;;;;53.70;28.92;;;0.90;99.90;;;;;;5149891;27;20202;-61
2022/12/04 09:37:53;;;;;;;52.05;29.48;;;0.90;99.90;;;;;;5157214;27;20289;-60
2022/12/04 09:40:26;;;;;;;52.47;29.08;;;0.90;99.90;;;;;;5159740;27;20207;-61
2022/12/04 09:42:57;;;;;;;59.55;30.65;;;0.90;99.90;;;;;;5159078;27;20218;-60
2022/12/04 09:45:26;;;;;;;53.97;28.73;;;0.90;99.90;;;;;;5154341;27;20570;-60
2022/12/04 09:47:56;;;;;;;50.97;27.52;;;0.90;99.90;;;;;;5139627;27;20310;-60
2022/12/04 09:50:32;;;;;;;64.40;30.77;;;0.90;99.90;;;;;;5139572;27;20571;-61
2022/12/04 09:53:03;;;;;;;60.60;27.00;;;0.90;99.90;;;;;;5137753;27;20222;-61
2022/12/04 09:55:34;;;;;;;55.05;28.95;;;0.90;99.90;;;;;;5137854;27;20190;-61
2022/12/04 09:58:04;;;;;;;59.70;30.05;;;0.80;99.90;;;;;;5136930;27;20184;-60
2022/12/04 10:00:41;;;;;;;50.50;27.00;;;0.80;99.90;;;;;;5138894;27;20199;-61
2022/12/04 10:03:15;;;;;;;61.22;29.42;;;0.80;99.90;;;;;;5147172;27;20689;-60
2022/12/04 10:05:52;;;;;;;71.03;30.92;;;0.80;99.90;;;;;;5158178;27;20186;-61
2022/12/04 10:08:22;;;;;;;49.53;26.55;;;0.80;99.90;;;;;;5156137;27;20658;-60
2022/12/04 10:10:59;;;;;;;57.17;28.20;;;0.90;99.90;;;;;;5157387;27;20198;-61
2022/12/04 10:13:44;;;;;;;56.20;29.50;;;0.90;99.90;;;;;;5151654;27;20214;-60
2022/12/04 10:16:19;;;;;;;66.60;31.90;;;0.90;99.90;;;;;;5136664;27;20191;-60
2022/12/04 10:18:53;;;;;;;60.00;29.63;;;1.00;99.90;;;;;;5149004;27;20202;-61
2022/12/04 10:21:37;;;;;;;58.95;29.92;;;1.00;99.90;;;;;;5155910;27;20190;-59
2022/12/04 10:24:19;;;;;;;57.50;29.02;;;1.00;99.90;;;;;;5157111;27;20218;-61
2022/12/04 10:26:48;;;;;;;64.75;31.17;;;1.00;99.90;;;;;;5153764;27;20190;-62
2022/12/04 10:29:20;;;;;;;60.45;29.95;;;1.00;99.90;;;;;;5157866;27;20202;-60
2022/12/04 10:31:49;;;;;;;65.88;30.90;;;1.00;99.90;;;;;;5144177;22;20224;-59
2022/12/04 10:34:21;;;;;;;53.47;28.77;;;0.90;99.90;;;;;;5075598;28;20204;-60
2022/12/04 10:36:51;;;;;;;64.20;31.30;;;0.90;99.90;;;;;;5076685;28;20185;-58
2022/12/04 10:39:24;;;;;;;65.20;30.02;;;0.90;99.90;;;;;;5074207;28;20283;-59
2022/12/04 10:41:57;;;;;;;60.97;30.25;;;0.90;99.90;;;;;;5077504;28;20712;-57
2022/12/04 10:44:24;;;;;;;51.88;27.13;;;0.90;99.90;;;;;;5077557;28;20196;-58
2022/12/04 10:46:55;;;;;;;55.30;28.08;;;0.90;99.90;;;;;;5076894;28;20208;-58
2022/12/04 10:49:24;;;;;;;54.63;29.42;;;0.90;99.90;;;;;;5076449;28;20200;-59
2022/12/04 10:51:53;;;;;;;54.30;30.38;;;0.90;99.90;;;;;;5076108;28;20715;-58
2022/12/04 10:54:22;;;;;;;55.53;29.77;;;0.90;99.90;;;;;;5076599;28;20220;-59
2022/12/04 10:56:54;;;;;;;69.95;31.17;;;0.90;99.90;;;;;;5076723;28;20209;-59
2022/12/04 10:59:21;;;;;;;57.00;27.92;;;0.90;99.90;;;;;;5077992;28;20221;-59
2022/12/04 11:01:48;;;;;;;61.45;29.88;;;0.90;99.90;;;;;;5082450;28;20712;-60
2022/12/04 11:04:25;;;;;;;58.63;30.15;;;1.00;99.90;;;;;;5077047;28;20197;-60
2022/12/04 11:07:04;;;;;;;59.58;28.48;;;1.10;99.90;;;;;;5076379;28;20200;-60
2022/12/04 11:09:32;;;;;;;54.13;27.55;;;1.10;99.90;;;;;;5075944;28;20644;-60
2022/12/04 11:12:08;;;;;;;60.55;28.67;;;1.20;99.90;;;;;;5075793;28;20231;-59
2022/12/04 11:14:34;;;;;;;61.08;27.98;;;1.20;99.90;;;;;;5076609;28;20652;-60
2022/12/04 11:17:04;;;;;;;59.30;29.73;;;1.20;99.90;;;;;;5076095;28;20209;-59
2022/12/04 11:19:33;;;;;;;55.13;28.55;;;1.20;99.90;;;;;;5075223;28;20205;-59
2022/12/04 11:22:05;;;;;;;50.78;28.13;;;1.10;99.90;;;;;;5074789;28;20216;-59
2022/12/04 11:24:34;;;;;;;65.13;29.67;;;1.10;99.90;;;;;;5073980;28;20663;-60
2022/12/04 11:27:02;;;;;;;58.35;31.75;;;1.10;99.90;;;;;;5074272;28;20201;-59
2022/12/04 11:29:32;;;;;;;53.70;29.70;;;1.10;99.90;;;;;;5075879;28;20216;-59
2022/12/04 11:32:00;;;;;;;56.53;29.00;;;1.10;99.90;;;;;;5075456;28;20232;-60
2022/12/04 11:34:34;;;;;;;51.03;28.95;;;1.10;99.90;;;;;;5075566;28;20197;-59
2022/12/04 11:37:03;;;;;;;49.88;25.80;;;1.10;99.90;;;;;;5078547;28;20189;-59
2022/12/04 11:39:34;;;;;;;54.97;27.42;;;1.10;99.90;;;;;;5077484;28;20201;-58
2022/12/04 11:42:06;;;;;;;52.53;26.92;;;1.10;99.90;;;;;;5077265;28;20240;-59
2022/12/04 11:44:35;;;;;;;65.00;28.42;;;1.00;99.90;;;;;;5075836;28;20642;-59
2022/12/04 11:47:04;;;;;;;62.67;31.35;;;1.00;99.90;;;;;;5074220;28;20207;-59
2022/12/04 11:49:32;;;;;;;53.35;29.13;;;1.00;99.90;;;;;;5063413;28;20209;-60
2022/12/04 11:52:11;;;;;;;59.17;28.63;;;1.00;99.90;;;;;;5065195;28;20293;-58
2022/12/04 11:54:49;;;;;;;60.95;27.88;;;1.00;99.90;;;;;;5072868;28;20186;-60
2022/12/04 11:57:23;;;;;;;68.10;28.08;;;1.00;99.90;;;;;;5053712;28;20185;-60
2022/12/04 12:00:03;;;;;;;64.57;29.40;;;1.00;99.90;;;;;;5054295;28;20197;-58
2022/12/04 12:02:56;;;;;;;65.72;28.88;;;1.00;99.90;;;;;;5053793;28;20701;-58
2022/12/04 12:05:53;;;;;;;60.05;27.85;;;1.00;99.90;;;;;;5057080;28;20186;-59
2022/12/04 12:08:37;;;;;;;50.00;26.20;;;1.00;99.90;;;;;;5061440;28;20197;-60
2022/12/04 12:11:11;;;;;;;54.53;25.73;;;1.00;99.90;;;;;;5055823;28;20331;-59
2022/12/04 12:13:49;;;;;;;60.13;28.35;;;1.00;99.90;;;;;;5055734;28;20556;-59
2022/12/04 12:16:26;;;;;;;58.55;28.52;;;1.00;99.90;;;;;;5054632;28;20186;-59
2022/12/04 12:19:07;;;;;;;63.97;29.55;;;1.00;99.90;;;;;;5054450;28;20190;-59
2022/12/04 12:21:43;;;;;;;59.15;29.80;;;1.10;99.90;;;;;;5054484;28;20264;-59
2022/12/04 12:24:23;;;;;;;64.45;27.90;;;1.10;99.90;;;;;;5057426;28;20190;-61
2022/12/04 12:26:55;;;;;;;61.25;28.48;;;1.10;99.90;;;;;;5065670;28;20204;-60
2022/12/04 12:29:37;;;;;;;60.15;30.08;;;1.10;99.90;;;;;;5059331;28;20201;-60
2022/12/04 12:32:15;;;;;;;54.58;29.45;;;1.10;99.90;;;;;;5097764;28;20224;-59
2022/12/04 12:34:45;;;;;;;60.17;32.33;;;1.20;99.90;;;;;;5104209;28;20307;-59
2022/12/04 12:37:37;;;;;;;72.65;31.85;;;1.20;99.90;;;;;;5067045;28;20197;-60
2022/12/04 12:40:10;;;;;;;51.97;27.67;;;1.20;99.90;;;;;;5069501;28;20201;-60
2022/12/04 12:42:43;;;;;;;62.15;32.20;;;1.20;99.90;;;;;;5067005;28;20236;-60
2022/12/04 12:45:23;;;;;;;66.70;30.02;;;1.20;99.90;;;;;;5059942;28;20668;-59
2022/12/04 12:47:55;;;;;;;63.58;28.83;;;1.20;99.90;;;;;;5058610;28;20638;-59
2022/12/04 12:50:26;;;;;;;58.08;29.35;;;1.20;99.90;;;;;;5064584;28;20197;-59
2022/12/04 12:52:57;;;;;;;57.38;28.73;;;1.10;99.90;;;;;;5066538;28;20258;-60
2022/12/04 12:55:29;;;;;;;59.00;29.95;;;1.10;99.90;;;;;;5066877;28;20193;-59
2022/12/04 12:58:04;;;;;;;54.80;26.52;;;1.10;99.90;;;;;;5080180;28;20181;-60
2022/12/04 13:00:37;;;;;;;70.30;29.15;;;1.10;99.90;;;;;;5074544;28;20200;-59
2022/12/04 13:03:15;;;;;;;61.78;29.75;;;1.10;99.90;;;;;;5060495;28;20228;-59
2022/12/04 13:05:46;;;;;;;57.05;27.33;;;1.10;99.90;;;;;;5068932;28;20677;-59